Cathlamet — WYR7641 — position and weather

sailwx.info

Track history (hours):
 
Tides and Currents Weather Stations Pressure Air Temp Water Temp Dewpoint Dewpoint Depression Visibility Wind Speed Wind Dir Waves Ship Positions

Cathlamet

Owner: WASHINGTON, STATE OF; Dept. of Transportation, OLYMPIA, WA. More information available from US FCC via Universal Licensing System and Coast Guard Vessel Documentation Center.

Last reported at 2017-Apr-30 16:31 UTC. Time now 2017-Apr-30 16:54 UTC.
Position N 47°31' W 122°28'.

Length 100 m.

Type: Passenger vessel. MMSI: 366773070.

Date/timePositionNaut miles runAvg speedWind from/ knotsBaromVisibWave heightAir tempDewpointWater temp
2017-Apr-30 16:31N 47°31' W 122°28'0 0.0
2017-Apr-30 16:00N 47°31' W 122°28'0 0.0
2017-Apr-30 15:31N 47°31' W 122°28'0 0.0
2017-Apr-30 15:01N 47°31' W 122°28'0 0.0
2017-Apr-30 14:31N 47°31' W 122°28'0 0.0
2017-Apr-30 13:30N 47°31' W 122°28'0 0.0
2017-Apr-30 13:01N 47°31' W 122°28'0 0.0
2017-Apr-30 12:31N 47°31' W 122°28'0 0.0
2017-Apr-30 12:01N 47°31' W 122°28'0 0.0
2017-Apr-30 11:31N 47°31' W 122°28'0 0.0
2017-Apr-30 11:01N 47°31' W 122°28'0 0.0
2017-Apr-30 10:31N 47°31' W 122°28'0 0.0
2017-Apr-30 10:01N 47°31' W 122°28'0 0.0
2017-Apr-30 09:31N 47°31' W 122°28'0 0.0
2017-Apr-30 09:01N 47°31' W 122°28'0 0.0
2017-Apr-30 08:31N 47°31' W 122°28'0 0.0
2017-Apr-30 08:01N 47°31' W 122°28'0 0.0
2017-Apr-30 07:31N 47°31' W 122°28'0 0.0
2017-Apr-30 07:01N 47°31' W 122°28'0 0.0
2017-Apr-30 06:31N 47°31' W 122°28'0 0.0
2017-Apr-30 06:01N 47°31' W 122°28'0 0.0
2017-Apr-30 05:31N 47°31' W 122°28'0 0.0
2017-Apr-30 05:01N 47°31' W 122°28'0 0.0
2017-Apr-30 04:31N 47°31' W 122°28'0 0.0
2017-Apr-30 04:01N 47°31' W 122°28'0 0.0
2017-Apr-30 03:31N 47°31' W 122°28'0 0.0
2017-Apr-30 03:01N 47°31' W 122°28'0 0.0
2017-Apr-30 02:30N 47°31' W 122°28'0 0.0
2017-Apr-30 02:01N 47°31' W 122°28'0 0.0
2017-Apr-30 01:31N 47°31' W 122°28'0 0.0
2017-Apr-30 01:01N 47°31' W 122°28'0 0.0
2017-Apr-30 00:31N 47°31' W 122°28'0 0.0
2017-Apr-30 00:01N 47°31' W 122°28'1 2.2
2017-Apr-29 23:30N 47°31' W 122°26'0 0.2
2017-Apr-29 23:00N 47°31' W 122°26'2 3.5
2017-Apr-29 22:30N 47°31' W 122°24'3 5.4
2017-Apr-29 22:01N 47°31' W 122°28'1 2.8
2017-Apr-29 21:31N 47°31' W 122°30'1 2.6
2017-Apr-29 21:00N 47°31' W 122°28'3 5.6
2017-Apr-29 20:30N 47°31' W 122°24'2 4.2
2017-Apr-29 20:00N 47°31' W 122°27'0 1.0
2017-Apr-29 19:30N 47°31' W 122°26'2 4.6
2017-Apr-29 19:00N 47°31' W 122°30'1 2.8
2017-Apr-29 18:31N 47°31' W 122°28'2 4.8
2017-Apr-29 18:01N 47°31' W 122°24'3 5.4
2017-Apr-29 17:31N 47°31' W 122°28'1 2.3
2017-Apr-29 17:00N 47°32' W 122°27'1 1.5
2017-Apr-29 16:31N 47°31' W 122°26'2 3.1
2017-Apr-29 16:00N 47°31' W 122°28'0 0.0
2017-Apr-29 15:30N 47°31' W 122°28'0 0.0
2017-Apr-29 15:00N 47°31' W 122°28'0 0.0
2017-Apr-29 14:00N 47°31' W 122°28'0 0.0
2017-Apr-29 13:30N 47°31' W 122°28'0 0.0
2017-Apr-29 13:00N 47°31' W 122°28'0 0.0
2017-Apr-29 12:30N 47°31' W 122°28'0 0.0
2017-Apr-29 12:00N 47°31' W 122°28'0 0.0
2017-Apr-29 11:30N 47°31' W 122°28'0 0.0
2017-Apr-29 11:00N 47°31' W 122°28'0 0.0
2017-Apr-29 10:30N 47°31' W 122°28'0 0.0
2017-Apr-29 10:00N 47°31' W 122°28'0 0.0
2017-Apr-29 09:30N 47°31' W 122°28'0 0.0
2017-Apr-29 09:00N 47°31' W 122°28'0 0.0
2017-Apr-29 08:30N 47°31' W 122°28'0 0.0
2017-Apr-29 08:00N 47°31' W 122°28'0 0.0
2017-Apr-29 07:30N 47°31' W 122°28'0 0.0
2017-Apr-29 07:00N 47°31' W 122°28'0 0.0
2017-Apr-29 06:30N 47°31' W 122°28'0 0.0
2017-Apr-29 06:00N 47°31' W 122°28'0 0.0
2017-Apr-29 05:30N 47°31' W 122°28'0 0.0
2017-Apr-29 05:00N 47°31' W 122°28'1 1.0
2017-Apr-29 04:31N 47°31' W 122°27'2 3.7
2017-Apr-29 04:00N 47°31' W 122°25'3 6.3
2017-Apr-29 03:30N 47°31' W 122°29'1 1.8
2017-Apr-29 03:00N 47°31' W 122°28'3 5.7
2017-Apr-29 02:30N 47°31' W 122°24'3 5.5
2017-Apr-29 02:00N 47°31' W 122°28'1 2.7
2017-Apr-29 01:30N 47°31' W 122°30'2 3.9
2017-Apr-29 01:00N 47°31' W 122°27'2 4.0
2017-Apr-29 00:30N 47°31' W 122°24'3 5.1
2017-Apr-29 00:00N 47°31' W 122°28'3 5.2
2017-Apr-28 23:31N 47°31' W 122°24'4 8.1
2017-Apr-28 23:00N 47°31' W 122°30'4 8.0
2017-Apr-28 22:30N 47°31' W 122°24'3 6.4
2017-Apr-28 22:00N 47°31' W 122°28'2 4.8
2017-Apr-28 21:30N 47°31' W 122°25'2 3.7
2017-Apr-28 21:00N 47°31' W 122°28'2 3.7
2017-Apr-28 20:30N 47°32' W 122°25'1 1.7
2017-Apr-28 20:00N 47°31' W 122°24'4 7.0
2017-Apr-28 19:30N 47°31' W 122°29'1 1.7
2017-Apr-28 19:00N 47°31' W 122°28'3 5.5
2017-Apr-28 18:30N 47°31' W 122°24'3 5.6
2017-Apr-28 18:00N 47°31' W 122°28'3 5.5
2017-Apr-28 17:30N 47°31' W 122°24'4 7.2
2017-Apr-28 17:00N 47°31' W 122°29'1 1.7
2017-Apr-28 16:30N 47°31' W 122°28'3 5.3
2017-Apr-28 15:59N 47°31' W 122°24'3 5.9
2017-Apr-28 15:31N 47°31' W 122°28'1 2.1
2017-Apr-28 15:00N 47°31' W 122°27'0 0.2
2017-Apr-28 14:00N 47°31' W 122°27'1 2.3
2017-Apr-28 13:31N 47°31' W 122°25'3 6.3
2017-Apr-28 13:01N 47°31' W 122°30'1 2.6
2017-Apr-28 12:31N 47°31' W 122°28'3 5.6
2017-Apr-28 12:00N 47°31' W 122°24'3 5.6
2017-Apr-28 11:30N 47°31' W 122°28'1 2.5
2017-Apr-28 11:01N 47°31' W 122°30'0 0.1
2017-Apr-28 10:31N 47°31' W 122°30'0 0.1
2017-Apr-28 10:00N 47°31' W 122°30'1 2.6
2017-Apr-28 09:31N 47°31' W 122°28'3 5.5
2017-Apr-28 09:01N 47°31' W 122°24'3 6.7
2017-Apr-28 08:30N 47°31' W 122°29'3 5.5
2017-Apr-28 08:01N 47°31' W 122°25'2 4.7
2017-Apr-28 07:31N 47°31' W 122°28'1 1.2
2017-Apr-28 07:00N 47°31' W 122°28'3 5.6
2017-Apr-28 06:30N 47°31' W 122°24'4 8.1
2017-Apr-28 06:01N 47°31' W 122°30'2 4.2
2017-Apr-28 05:30N 47°31' W 122°27'0 0.3
2017-Apr-28 05:00N 47°31' W 122°26'0 0.3
2017-Apr-28 04:31N 47°31' W 122°26'2 3.0
2017-Apr-28 04:01N 47°31' W 122°24'3 6.9
2017-Apr-28 03:30N 47°31' W 122°29'1 2.0
2017-Apr-28 03:00N 47°31' W 122°28'3 5.4
2017-Apr-28 02:30N 47°31' W 122°24'3 5.5
2017-Apr-28 02:00N 47°31' W 122°28'1 2.7
2017-Apr-28 01:30N 47°31' W 122°30'1 2.6
2017-Apr-28 01:01N 47°31' W 122°28'3 5.6
2017-Apr-28 00:30N 47°31' W 122°24'3 5.3
2017-Apr-28 00:01N 47°31' W 122°28'2 4.5
2017-Apr-27 23:30N 47°31' W 122°24'4 7.4
2017-Apr-27 23:00N 47°31' W 122°30'4 8.0
2017-Apr-27 22:30N 47°31' W 122°24'3 5.3
2017-Apr-27 22:01N 47°31' W 122°28'0 1.0
2017-Apr-27 21:31N 47°31' W 122°27'1 1.2
2017-Apr-27 21:01N 47°31' W 122°26'1 1.5
2017-Apr-27 20:30N 47°31' W 122°25'1 1.9
2017-Apr-27 20:01N 47°31' W 122°24'4 7.0
2017-Apr-27 19:30N 47°31' W 122°29'1 1.8
2017-Apr-27 19:01N 47°31' W 122°28'3 5.5
2017-Apr-27 18:30N 47°31' W 122°24'3 5.5
2017-Apr-27 18:00N 47°31' W 122°28'2 4.8
2017-Apr-27 17:30N 47°31' W 122°24'3 6.9
2017-Apr-27 17:01N 47°31' W 122°29'1 2.1
2017-Apr-27 16:30N 47°31' W 122°28'3 5.6
2017-Apr-27 16:01N 47°31' W 122°24'3 5.5
2017-Apr-27 15:30N 47°31' W 122°28'1 1.9
2017-Apr-27 15:00N 47°31' W 122°27'0 0.4
2017-Apr-27 14:00N 47°31' W 122°27'1 1.9
2017-Apr-27 13:30N 47°31' W 122°25'3 6.3
2017-Apr-27 13:01N 47°31' W 122°30'1 2.6
2017-Apr-27 12:30N 47°31' W 122°28'3 5.6
2017-Apr-27 12:00N 47°31' W 122°24'3 5.6
2017-Apr-27 11:31N 47°31' W 122°28'1 2.5
2017-Apr-27 11:01N 47°31' W 122°30'0 0.1
2017-Apr-27 10:30N 47°31' W 122°30'0 0.1
2017-Apr-27 10:00N 47°31' W 122°30'1 2.6
2017-Apr-27 09:30N 47°31' W 122°28'3 5.6
2017-Apr-27 09:00N 47°31' W 122°24'4 7.6
2017-Apr-27 08:31N 47°31' W 122°29'3 5.6
2017-Apr-27 08:00N 47°31' W 122°25'3 5.1
2017-Apr-27 07:31N 47°31' W 122°29'1 1.7
2017-Apr-27 07:00N 47°31' W 122°28'3 5.4
2017-Apr-27 06:30N 47°31' W 122°24'4 7.4
2017-Apr-27 06:01N 47°31' W 122°29'2 4.2
2017-Apr-27 05:30N 47°31' W 122°26'0 0.8
2017-Apr-27 05:00N 47°31' W 122°27'0 0.4
2017-Apr-27 04:30N 47°31' W 122°27'2 4.0
2017-Apr-27 04:00N 47°31' W 122°24'4 7.1
2017-Apr-27 03:30N 47°31' W 122°29'1 1.4
2017-Apr-27 03:00N 47°31' W 122°28'3 5.9
2017-Apr-27 02:30N 47°31' W 122°24'3 5.6
2017-Apr-27 02:00N 47°31' W 122°28'1 2.7
2017-Apr-27 01:30N 47°31' W 122°30'2 4.6
2017-Apr-27 01:01N 47°31' W 122°26'2 3.4
2017-Apr-27 00:31N 47°31' W 122°24'3 5.1
2017-Apr-27 00:01N 47°31' W 122°28'3 5.2
2017-Apr-26 23:31N 47°31' W 122°24'4 8.1
2017-Apr-26 23:00N 47°31' W 122°30'4 8.0
2017-Apr-26 22:30N 47°31' W 122°24'2 4.6
2017-Apr-26 22:01N 47°31' W 122°27'0 0.9
2017-Apr-26 21:30N 47°31' W 122°28'2 4.1
2017-Apr-26 21:00N 47°31' W 122°25'0 0.2
2017-Apr-26 20:31N 47°31' W 122°25'1 1.6
2017-Apr-26 20:00N 47°31' W 122°24'4 7.0
2017-Apr-26 19:31N 47°31' W 122°29'1 1.8
2017-Apr-26 19:01N 47°31' W 122°28'3 5.4
2017-Apr-26 18:30N 47°31' W 122°24'3 5.7
2017-Apr-26 18:01N 47°31' W 122°28'2 4.7
2017-Apr-26 17:31N 47°31' W 122°24'3 6.7
2017-Apr-26 17:01N 47°31' W 122°29'1 2.1
2017-Apr-26 16:30N 47°31' W 122°28'3 5.6
2017-Apr-26 16:00N 47°31' W 122°24'3 5.3
2017-Apr-26 15:31N 47°31' W 122°28'1 1.5
2017-Apr-26 15:00N 47°31' W 122°27'1 2.7
2017-Apr-26 14:30N 47°31' W 122°25'0 0.2
2017-Apr-26 13:30N 47°31' W 122°25'3 6.4
2017-Apr-26 13:00N 47°31' W 122°30'1 2.6
2017-Apr-26 12:30N 47°31' W 122°28'3 5.6
2017-Apr-26 12:00N 47°31' W 122°24'3 5.9
2017-Apr-26 11:30N 47°31' W 122°28'1 2.3
2017-Apr-26 11:00N 47°31' W 122°30'0 0.1
2017-Apr-26 10:30N 47°31' W 122°30'0 0.1
2017-Apr-26 10:01N 47°31' W 122°30'1 2.6
2017-Apr-26 09:30N 47°31' W 122°28'1 2.2
2017-Apr-26 09:00N 47°31' W 122°26'1 2.2
2017-Apr-26 08:30N 47°31' W 122°28'1 1.7
2017-Apr-26 08:00N 47°31' W 122°27'1 1.7
2017-Apr-26 07:30N 47°31' W 122°28'2 3.5
2017-Apr-26 07:01N 47°31' W 122°25'1 2.1
2017-Apr-26 06:30N 47°31' W 122°24'4 8.0
2017-Apr-26 06:01N 47°31' W 122°30'3 6.2
2017-Apr-26 05:30N 47°31' W 122°25'1 2.2
2017-Apr-26 05:00N 47°31' W 122°27'0 0.7
2017-Apr-26 04:30N 47°31' W 122°27'2 3.9
2017-Apr-26 04:00N 47°31' W 122°24'3 6.5
2017-Apr-26 03:31N 47°31' W 122°29'1 1.1
2017-Apr-26 03:01N 47°31' W 122°28'3 5.9
2017-Apr-26 02:30N 47°31' W 122°24'3 5.7
2017-Apr-26 02:00N 47°31' W 122°28'1 2.7
2017-Apr-26 01:31N 47°31' W 122°30'1 2.9
2017-Apr-26 01:01N 47°31' W 122°28'3 5.1
2017-Apr-26 00:30N 47°31' W 122°24'2 4.9
2017-Apr-26 00:01N 47°31' W 122°27'2 4.8
2017-Apr-25 23:31N 47°31' W 122°24'4 7.8
2017-Apr-25 23:00N 47°31' W 122°30'4 7.9
2017-Apr-25 22:30N 47°31' W 122°24'2 5.1
2017-Apr-25 22:00N 47°31' W 122°27'1 3.0
2017-Apr-25 21:31N 47°32' W 122°25'2 3.4
2017-Apr-25 21:00N 47°31' W 122°28'3 5.0
2017-Apr-25 20:30N 47°31' W 122°24'0 0.1
2017-Apr-25 20:01N 47°31' W 122°24'4 7.7
2017-Apr-25 19:31N 47°31' W 122°30'1 2.5
2017-Apr-25 19:01N 47°31' W 122°28'3 5.5
2017-Apr-25 18:30N 47°31' W 122°24'3 5.5
2017-Apr-25 18:00N 47°31' W 122°28'2 3.4
2017-Apr-25 17:31N 47°31' W 122°25'3 5.9
2017-Apr-25 17:01N 47°31' W 122°30'1 2.5
2017-Apr-25 16:30N 47°31' W 122°28'3 5.6
2017-Apr-25 16:00N 47°31' W 122°24'3 5.5
2017-Apr-25 15:31N 47°31' W 122°28'1 1.5
2017-Apr-25 15:00N 47°31' W 122°27'1 2.8
2017-Apr-25 14:30N 47°31' W 122°25'0 0.1
2017-Apr-25 13:31N 47°31' W 122°25'3 6.3
2017-Apr-25 13:00N 47°31' W 122°30'1 2.6
2017-Apr-25 12:30N 47°31' W 122°28'3 5.6
2017-Apr-25 12:00N 47°31' W 122°24'3 5.6
2017-Apr-25 11:31N 47°31' W 122°28'1 2.6
2017-Apr-25 11:00N 47°31' W 122°30'0 0.2
2017-Apr-25 10:30N 47°31' W 122°30'0 0.2
2017-Apr-25 10:00N 47°31' W 122°30'1 2.6
2017-Apr-25 09:30N 47°31' W 122°28'3 5.6
2017-Apr-25 09:00N 47°31' W 122°24'4 8.0
2017-Apr-25 08:30N 47°31' W 122°30'3 6.8
2017-Apr-25 08:00N 47°31' W 122°25'3 5.0
2017-Apr-25 07:30N 47°31' W 122°28'1 1.3
2017-Apr-25 07:00N 47°31' W 122°28'3 5.6
2017-Apr-25 06:30N 47°31' W 122°24'4 8.1
2017-Apr-25 06:00N 47°31' W 122°30'2 4.8
2017-Apr-25 05:30N 47°31' W 122°26'0 0.7
2017-Apr-25 05:00N 47°31' W 122°27'0 0.1
2017-Apr-25 04:30N 47°31' W 122°27'2 4.1
2017-Apr-25 04:01N 47°31' W 122°24'3 6.8
2017-Apr-25 03:30N 47°31' W 122°29'1 1.1
2017-Apr-25 03:00N 47°31' W 122°28'3 5.7
2017-Apr-25 02:30N 47°31' W 122°24'3 5.6
2017-Apr-25 02:00N 47°31' W 122°28'1 2.6
2017-Apr-25 01:30N 47°31' W 122°30'3 5.3
2017-Apr-25 01:01N 47°31' W 122°26'1 1.3
2017-Apr-25 00:31N 47°31' W 122°25'1 2.0
2017-Apr-25 00:01N 47°32' W 122°26'1 2.9
2017-Apr-24 23:30N 47°31' W 122°24'4 8.1
2017-Apr-24 23:00N 47°31' W 122°30'4 7.9
2017-Apr-24 22:30N 47°31' W 122°24'3 5.3
2017-Apr-24 22:01N 47°31' W 122°28'1 1.5
2017-Apr-24 21:30N 47°31' W 122°27'0 1.0
2017-Apr-24 21:01N 47°31' W 122°27'2 3.9
2017-Apr-24 20:30N 47°31' W 122°24'0 0.4
2017-Apr-24 20:00N 47°31' W 122°24'3 6.9
2017-Apr-24 19:30N 47°31' W 122°29'1 2.3
2017-Apr-24 19:00N 47°31' W 122°28'3 5.3
2017-Apr-24 18:29N 47°31' W 122°24'3 5.8
2017-Apr-24 18:00N 47°31' W 122°28'2 4.6
2017-Apr-24 17:31N 47°31' W 122°25'3 6.8
2017-Apr-24 17:01N 47°31' W 122°30'1 2.4
2017-Apr-24 16:30N 47°31' W 122°28'3 5.6
2017-Apr-24 16:00N 47°31' W 122°24'3 5.7
2017-Apr-24 15:31N 47°31' W 122°28'1 1.7
2017-Apr-24 15:01N 47°31' W 122°27'1 1.8
2017-Apr-24 14:30N 47°31' W 122°26'0 0.4
2017-Apr-24 13:30N 47°31' W 122°25'3 5.9
2017-Apr-24 13:00N 47°31' W 122°30'1 2.6
2017-Apr-24 12:31N 47°31' W 122°28'3 5.5
2017-Apr-24 12:00N 47°31' W 122°24'3 5.6
2017-Apr-24 11:31N 47°31' W 122°28'1 2.6
2017-Apr-24 11:00N 47°31' W 122°30'0 0.0
2017-Apr-24 10:30N 47°31' W 122°30'0 0.0
2017-Apr-24 10:00N 47°31' W 122°30'1 2.6
2017-Apr-24 09:30N 47°31' W 122°28'3 5.6
2017-Apr-24 09:01N 47°31' W 122°24'4 7.8
2017-Apr-24 08:30N 47°31' W 122°30'3 7.0
2017-Apr-24 08:01N 47°31' W 122°24'3 5.4
2017-Apr-24 07:30N 47°31' W 122°28'1 1.3
2017-Apr-24 07:01N 47°31' W 122°28'3 5.6
2017-Apr-24 06:30N 47°31' W 122°24'4 8.1
2017-Apr-24 06:00N 47°31' W 122°30'2 3.6
2017-Apr-24 05:31N 47°31' W 122°27'0 0.6
2017-Apr-24 05:00N 47°31' W 122°27'0 1.0
2017-Apr-24 04:30N 47°31' W 122°26'1 2.6
2017-Apr-24 04:00N 47°31' W 122°24'4 7.4
2017-Apr-24 03:30N 47°31' W 122°30'1 2.5
2017-Apr-24 03:00N 47°31' W 122°28'3 5.6
2017-Apr-24 02:30N 47°31' W 122°24'3 5.7
2017-Apr-24 02:00N 47°31' W 122°28'3 5.6
2017-Apr-24 01:30N 47°31' W 122°24'3 5.6
2017-Apr-24 01:00N 47°31' W 122°28'3 5.4
2017-Apr-24 00:30N 47°31' W 122°24'3 5.9
2017-Apr-24 00:01N 47°31' W 122°28'0 0.6
2017-Apr-23 23:30N 47°31' W 122°28'3 5.6
2017-Apr-23 23:01N 47°31' W 122°24'3 5.5
2017-Apr-23 22:30N 47°31' W 122°28'1 2.7
2017-Apr-23 22:00N 47°31' W 122°30'3 5.4
2017-Apr-23 21:31N 47°31' W 122°26'0 0.8
2017-Apr-23 21:00N 47°31' W 122°26'2 3.1
2017-Apr-23 20:30N 47°31' W 122°24'3 5.3
2017-Apr-23 20:01N 47°31' W 122°28'1 2.5
2017-Apr-23 19:30N 47°31' W 122°30'4 7.8
2017-Apr-23 19:00N 47°31' W 122°24'1 3.0
2017-Apr-23 18:30N 47°31' W 122°26'3 5.1
2017-Apr-23 18:00N 47°31' W 122°30'1 2.6
2017-Apr-23 17:31N 47°31' W 122°28'3 5.4
2017-Apr-23 17:00N 47°31' W 122°24'3 5.4
2017-Apr-23 16:31N 47°31' W 122°28'0 0.6
2017-Apr-23 16:00N 47°31' W 122°28'3 5.2
2017-Apr-23 15:28N 47°31' W 122°24'3 6.0
2017-Apr-23 15:00N 47°31' W 122°28'1 1.0
2017-Apr-23 14:00N 47°31' W 122°27'1 2.1
2017-Apr-23 13:30N 47°31' W 122°25'3 6.3
2017-Apr-23 13:00N 47°31' W 122°30'1 2.6
2017-Apr-23 12:30N 47°31' W 122°28'3 5.2
2017-Apr-23 11:58N 47°31' W 122°24'3 6.2
2017-Apr-23 11:30N 47°31' W 122°28'1 2.5
2017-Apr-23 11:00N 47°31' W 122°30'0 0.0
2017-Apr-23 10:30N 47°31' W 122°30'0 0.0
2017-Apr-23 10:00N 47°31' W 122°30'1 2.6
2017-Apr-23 09:30N 47°31' W 122°28'2 3.2
2017-Apr-23 09:01N 47°31' W 122°26'2 3.2
2017-Apr-23 08:30N 47°31' W 122°28'2 4.5
2017-Apr-23 07:58N 47°31' W 122°24'4 7.9
2017-Apr-23 07:30N 47°31' W 122°30'1 2.9
2017-Apr-23 07:00N 47°31' W 122°28'1 2.8
2017-Apr-23 06:31N 47°31' W 122°26'2 3.3
2017-Apr-23 06:00N 47°31' W 122°28'2 4.7
2017-Apr-23 05:30N 47°31' W 122°25'1 2.8
2017-Apr-23 05:00N 47°31' W 122°27'0 0.2
2017-Apr-23 04:30N 47°31' W 122°27'1 2.9
2017-Apr-23 04:00N 47°31' W 122°24'4 7.3
2017-Apr-23 03:29N 47°31' W 122°30'1 2.5
2017-Apr-23 02:57N 47°31' W 122°28'3 5.9
2017-Apr-23 02:29N 47°31' W 122°24'3 5.9
2017-Apr-23 02:00N 47°31' W 122°28'1 2.6
2017-Apr-23 01:29N 47°31' W 122°26'0 0.6
2017-Apr-23 01:00N 47°31' W 122°26'0 0.9
2017-Apr-23 00:30N 47°31' W 122°26'2 4.6
2017-Apr-23 00:00N 47°31' W 122°30'1 2.6
2017-Apr-22 23:30N 47°31' W 122°28'3 5.6
2017-Apr-22 23:00N 47°31' W 122°24'3 5.5
2017-Apr-22 22:30N 47°31' W 122°28'1 2.5
2017-Apr-22 22:00N 47°31' W 122°30'3 5.2
2017-Apr-22 21:31N 47°31' W 122°26'1 1.2
2017-Apr-22 21:00N 47°31' W 122°25'1 1.8
2017-Apr-22 20:31N 47°31' W 122°26'1 2.7
2017-Apr-22 20:00N 47°31' W 122°24'4 7.3
2017-Apr-22 19:30N 47°31' W 122°30'1 2.5
2017-Apr-22 19:01N 47°31' W 122°28'3 5.4
2017-Apr-22 18:30N 47°31' W 122°24'4 7.8
2017-Apr-22 18:00N 47°31' W 122°30'1 2.5
2017-Apr-22 17:31N 47°31' W 122°28'3 5.5
2017-Apr-22 17:00N 47°31' W 122°24'3 6.7
2017-Apr-22 16:30N 47°31' W 122°29'1 1.2
2017-Apr-22 16:00N 47°31' W 122°28'3 5.6
2017-Apr-22 15:30N 47°31' W 122°24'3 5.5
2017-Apr-22 15:00N 47°31' W 122°28'1 2.4
2017-Apr-22 14:31N 47°31' W 122°30'3 3.0
2017-Apr-22 13:30N 47°31' W 122°25'3 6.5
2017-Apr-22 13:00N 47°31' W 122°30'1 2.6
2017-Apr-22 12:30N 47°31' W 122°28'3 5.6
2017-Apr-22 12:00N 47°31' W 122°24'3 6.1
2017-Apr-22 11:31N 47°31' W 122°28'1 2.1
2017-Apr-22 11:01N 47°31' W 122°30'0 0.0
2017-Apr-22 10:31N 47°31' W 122°30'0 0.0
2017-Apr-22 10:00N 47°31' W 122°30'1 2.7
2017-Apr-22 09:31N 47°31' W 122°28'1 2.9
2017-Apr-22 09:00N 47°31' W 122°26'2 3.1
2017-Apr-22 08:30N 47°31' W 122°28'3 5.2
2017-Apr-22 08:00N 47°31' W 122°24'3 5.1
2017-Apr-22 07:31N 47°31' W 122°28'3 5.4
2017-Apr-22 07:00N 47°31' W 122°24'4 8.1
2017-Apr-22 06:30N 47°31' W 122°30'1 2.6
2017-Apr-22 06:00N 47°31' W 122°28'3 5.6
2017-Apr-22 05:30N 47°31' W 122°24'4 7.7
2017-Apr-22 05:01N 47°31' W 122°29'1 2.1
2017-Apr-22 04:30N 47°31' W 122°28'3 5.6
2017-Apr-22 04:00N 47°31' W 122°24'3 5.3
2017-Apr-22 03:31N 47°31' W 122°28'2 3.5
2017-Apr-22 03:01N 47°31' W 122°25'3 6.4
2017-Apr-22 02:31N 47°31' W 122°30'1 2.6
2017-Apr-22 02:00N 47°31' W 122°28'3 5.6
2017-Apr-22 01:30N 47°31' W 122°24'4 8.1
2017-Apr-22 01:00N 47°31' W 122°30'1 2.6
2017-Apr-22 00:31N 47°31' W 122°28'3 5.5
2017-Apr-22 00:00N 47°31' W 122°24'3 5.6
2017-Apr-21 23:30N 47°31' W 122°28'3 5.5
2017-Apr-21 23:00N 47°31' W 122°24'1 2.5
2017-Apr-21 22:30N 47°31' W 122°26'2 3.0
2017-Apr-21 22:00N 47°31' W 122°28'0 0.0
2017-Apr-21 21:30N 47°31' W 122°28'0 0.0
2017-Apr-21 21:00N 47°31' W 122°28'0 0.0
2017-Apr-21 20:30N 47°31' W 122°28'2 3.7
2017-Apr-21 20:00N 47°31' W 122°25'1 2.9
2017-Apr-21 19:30N 47°31' W 122°27'1 2.7
2017-Apr-21 19:00N 47°31' W 122°25'2 3.6
2017-Apr-21 18:30N 47°31' W 122°28'1 2.7
2017-Apr-21 18:00N 47°31' W 122°30'2 4.9
2017-Apr-21 17:30N 47°31' W 122°26'2 3.2
2017-Apr-21 17:00N 47°31' W 122°24'3 6.0
2017-Apr-21 16:30N 47°31' W 122°28'0 0.4
2017-Apr-21 16:00N 47°31' W 122°28'3 5.8
2017-Apr-21 15:30N 47°31' W 122°24'4 7.3
2017-Apr-21 15:00N 47°31' W 122°29'1 1.9
2017-Apr-21 14:30N 47°31' W 122°28'0 0.0
2017-Apr-21 13:30N 47°31' W 122°28'3 5.6
2017-Apr-21 13:00N 47°31' W 122°24'3 5.5
2017-Apr-21 12:31N 47°31' W 122°28'0 0.0
2017-Apr-21 12:01N 47°31' W 122°28'0 0.0
2017-Apr-21 11:31N 47°31' W 122°28'0 0.0
2017-Apr-21 11:00N 47°31' W 122°28'0 0.0
2017-Apr-21 10:31N 47°31' W 122°28'0 0.0
2017-Apr-21 10:00N 47°31' W 122°28'0 0.0
2017-Apr-21 09:31N 47°31' W 122°28'0 0.0
2017-Apr-21 09:00N 47°31' W 122°28'0 0.0
2017-Apr-21 08:30N 47°31' W 122°28'0 0.0
2017-Apr-21 08:00N 47°31' W 122°28'0 0.0
2017-Apr-21 07:31N 47°31' W 122°28'0 0.0
2017-Apr-21 07:01N 47°31' W 122°28'0 0.0
2017-Apr-21 06:30N 47°31' W 122°28'0 0.0
2017-Apr-21 06:01N 47°31' W 122°28'0 0.0
2017-Apr-21 05:31N 47°31' W 122°28'0 0.0
2017-Apr-21 05:00N 47°31' W 122°28'1 2.6
2017-Apr-21 04:31N 47°31' W 122°30'4 7.7
2017-Apr-21 04:01N 47°31' W 122°24'3 5.2
2017-Apr-21 03:30N 47°31' W 122°28'3 5.5
2017-Apr-21 03:00N 47°31' W 122°24'3 5.9
2017-Apr-21 02:31N 47°31' W 122°28'0 0.8
2017-Apr-21 02:00N 47°31' W 122°28'3 5.6
2017-Apr-21 01:30N 47°31' W 122°24'4 8.2
2017-Apr-21 01:00N 47°31' W 122°30'1 2.6
2017-Apr-21 00:30N 47°31' W 122°28'3 5.5
2017-Apr-21 00:00N 47°31' W 122°24'3 5.6
2017-Apr-20 23:30N 47°31' W 122°28'3 5.3
2017-Apr-20 22:59N 47°31' W 122°24'2 4.3
2017-Apr-20 22:30N 47°31' W 122°27'0 0.7
2017-Apr-20 22:00N 47°31' W 122°27'2 4.2
2017-Apr-20 21:30N 47°31' W 122°24'3 5.0
2017-Apr-20 21:00N 47°31' W 122°28'0 0.0
2017-Apr-20 20:30N 47°31' W 122°28'2 3.6
2017-Apr-20 20:01N 47°31' W 122°25'1 1.7
2017-Apr-20 19:30N 47°31' W 122°26'2 3.1
2017-Apr-20 19:00N 47°31' W 122°24'3 5.0
2017-Apr-20 18:30N 47°31' W 122°28'1 2.7
2017-Apr-20 18:00N 47°31' W 122°30'2 3.7
2017-Apr-20 17:31N 47°31' W 122°27'2 4.4
2017-Apr-20 17:00N 47°31' W 122°24'  
Track history (hours):
 
Tides and Currents Weather Stations Pressure Air Temp Water Temp Dewpoint Dewpoint Depression Visibility Wind Speed Wind Dir Waves Ship Positions

Cathlamet

Owner: WASHINGTON, STATE OF; Dept. of Transportation, OLYMPIA, WA. More information available from US FCC via Universal Licensing System and Coast Guard Vessel Documentation Center.

Last reported at 2017-Apr-30 16:31 UTC. Time now 2017-Apr-30 16:54 UTC.
Position N 47°31' W 122°28'.

Length 100 m.

Type: Passenger vessel. MMSI: 366773070.

Date/timePositionNaut miles runAvg speedWind from/ knotsBaromVisibWave heightAir tempDewpointWater temp
2017-Apr-30 16:31N 47°31' W 122°28'0 0.0
2017-Apr-30 16:00N 47°31' W 122°28'0 0.0
2017-Apr-30 15:31N 47°31' W 122°28'0 0.0
2017-Apr-30 15:01N 47°31' W 122°28'0 0.0
2017-Apr-30 14:31N 47°31' W 122°28'0 0.0
2017-Apr-30 13:30N 47°31' W 122°28'0 0.0
2017-Apr-30 13:01N 47°31' W 122°28'0 0.0
2017-Apr-30 12:31N 47°31' W 122°28'0 0.0
2017-Apr-30 12:01N 47°31' W 122°28'0 0.0
2017-Apr-30 11:31N 47°31' W 122°28'0 0.0
2017-Apr-30 11:01N 47°31' W 122°28'0 0.0
2017-Apr-30 10:31N 47°31' W 122°28'0 0.0
2017-Apr-30 10:01N 47°31' W 122°28'0 0.0
2017-Apr-30 09:31N 47°31' W 122°28'0 0.0
2017-Apr-30 09:01N 47°31' W 122°28'0 0.0
2017-Apr-30 08:31N 47°31' W 122°28'0 0.0
2017-Apr-30 08:01N 47°31' W 122°28'0 0.0
2017-Apr-30 07:31N 47°31' W 122°28'0 0.0
2017-Apr-30 07:01N 47°31' W 122°28'0 0.0
2017-Apr-30 06:31N 47°31' W 122°28'0 0.0
2017-Apr-30 06:01N 47°31' W 122°28'0 0.0
2017-Apr-30 05:31N 47°31' W 122°28'0 0.0
2017-Apr-30 05:01N 47°31' W 122°28'0 0.0
2017-Apr-30 04:31N 47°31' W 122°28'0 0.0
2017-Apr-30 04:01N 47°31' W 122°28'0 0.0
2017-Apr-30 03:31N 47°31' W 122°28'0 0.0
2017-Apr-30 03:01N 47°31' W 122°28'0 0.0
2017-Apr-30 02:30N 47°31' W 122°28'0 0.0
2017-Apr-30 02:01N 47°31' W 122°28'0 0.0
2017-Apr-30 01:31N 47°31' W 122°28'0 0.0
2017-Apr-30 01:01N 47°31' W 122°28'0 0.0
2017-Apr-30 00:31N 47°31' W 122°28'0 0.0
2017-Apr-30 00:01N 47°31' W 122°28'1 2.2
2017-Apr-29 23:30N 47°31' W 122°26'0 0.2
2017-Apr-29 23:00N 47°31' W 122°26'2 3.5
2017-Apr-29 22:30N 47°31' W 122°24'3 5.4
2017-Apr-29 22:01N 47°31' W 122°28'1 2.8
2017-Apr-29 21:31N 47°31' W 122°30'1 2.6
2017-Apr-29 21:00N 47°31' W 122°28'3 5.6
2017-Apr-29 20:30N 47°31' W 122°24'2 4.2
2017-Apr-29 20:00N 47°31' W 122°27'0 1.0
2017-Apr-29 19:30N 47°31' W 122°26'2 4.6
2017-Apr-29 19:00N 47°31' W 122°30'1 2.8
2017-Apr-29 18:31N 47°31' W 122°28'2 4.8
2017-Apr-29 18:01N 47°31' W 122°24'3 5.4
2017-Apr-29 17:31N 47°31' W 122°28'1 2.3
2017-Apr-29 17:00N 47°32' W 122°27'1 1.5
2017-Apr-29 16:31N 47°31' W 122°26'2 3.1
2017-Apr-29 16:00N 47°31' W 122°28'0 0.0
2017-Apr-29 15:30N 47°31' W 122°28'0 0.0
2017-Apr-29 15:00N 47°31' W 122°28'0 0.0
2017-Apr-29 14:00N 47°31' W 122°28'0 0.0
2017-Apr-29 13:30N 47°31' W 122°28'0 0.0
2017-Apr-29 13:00N 47°31' W 122°28'0 0.0
2017-Apr-29 12:30N 47°31' W 122°28'0 0.0
2017-Apr-29 12:00N 47°31' W 122°28'0 0.0
2017-Apr-29 11:30N 47°31' W 122°28'0 0.0
2017-Apr-29 11:00N 47°31' W 122°28'0 0.0
2017-Apr-29 10:30N 47°31' W 122°28'0 0.0
2017-Apr-29 10:00N 47°31' W 122°28'0 0.0
2017-Apr-29 09:30N 47°31' W 122°28'0 0.0
2017-Apr-29 09:00N 47°31' W 122°28'0 0.0
2017-Apr-29 08:30N 47°31' W 122°28'0 0.0
2017-Apr-29 08:00N 47°31' W 122°28'0 0.0
2017-Apr-29 07:30N 47°31' W 122°28'0 0.0
2017-Apr-29 07:00N 47°31' W 122°28'0 0.0
2017-Apr-29 06:30N 47°31' W 122°28'0 0.0
2017-Apr-29 06:00N 47°31' W 122°28'0 0.0
2017-Apr-29 05:30N 47°31' W 122°28'0 0.0
2017-Apr-29 05:00N 47°31' W 122°28'1 1.0
2017-Apr-29 04:31N 47°31' W 122°27'2 3.7
2017-Apr-29 04:00N 47°31' W 122°25'3 6.3
2017-Apr-29 03:30N 47°31' W 122°29'1 1.8
2017-Apr-29 03:00N 47°31' W 122°28'3 5.7
2017-Apr-29 02:30N 47°31' W 122°24'3 5.5
2017-Apr-29 02:00N 47°31' W 122°28'1 2.7
2017-Apr-29 01:30N 47°31' W 122°30'2 3.9
2017-Apr-29 01:00N 47°31' W 122°27'2 4.0
2017-Apr-29 00:30N 47°31' W 122°24'3 5.1
2017-Apr-29 00:00N 47°31' W 122°28'3 5.2
2017-Apr-28 23:31N 47°31' W 122°24'4 8.1
2017-Apr-28 23:00N 47°31' W 122°30'4 8.0
2017-Apr-28 22:30N 47°31' W 122°24'3 6.4
2017-Apr-28 22:00N 47°31' W 122°28'2 4.8
2017-Apr-28 21:30N 47°31' W 122°25'2 3.7
2017-Apr-28 21:00N 47°31' W 122°28'2 3.7
2017-Apr-28 20:30N 47°32' W 122°25'1 1.7
2017-Apr-28 20:00N 47°31' W 122°24'4 7.0
2017-Apr-28 19:30N 47°31' W 122°29'1 1.7
2017-Apr-28 19:00N 47°31' W 122°28'3 5.5
2017-Apr-28 18:30N 47°31' W 122°24'3 5.6
2017-Apr-28 18:00N 47°31' W 122°28'3 5.5
2017-Apr-28 17:30N 47°31' W 122°24'4 7.2
2017-Apr-28 17:00N 47°31' W 122°29'1 1.7
2017-Apr-28 16:30N 47°31' W 122°28'3 5.3
2017-Apr-28 15:59N 47°31' W 122°24'3 5.9
2017-Apr-28 15:31N 47°31' W 122°28'1 2.1
2017-Apr-28 15:00N 47°31' W 122°27'0 0.2
2017-Apr-28 14:00N 47°31' W 122°27'1 2.3
2017-Apr-28 13:31N 47°31' W 122°25'3 6.3
2017-Apr-28 13:01N 47°31' W 122°30'1 2.6
2017-Apr-28 12:31N 47°31' W 122°28'3 5.6
2017-Apr-28 12:00N 47°31' W 122°24'3 5.6
2017-Apr-28 11:30N 47°31' W 122°28'1 2.5
2017-Apr-28 11:01N 47°31' W 122°30'0 0.1
2017-Apr-28 10:31N 47°31' W 122°30'0 0.1
2017-Apr-28 10:00N 47°31' W 122°30'1 2.6
2017-Apr-28 09:31N 47°31' W 122°28'3 5.5
2017-Apr-28 09:01N 47°31' W 122°24'3 6.7
2017-Apr-28 08:30N 47°31' W 122°29'3 5.5
2017-Apr-28 08:01N 47°31' W 122°25'2 4.7
2017-Apr-28 07:31N 47°31' W 122°28'1 1.2
2017-Apr-28 07:00N 47°31' W 122°28'3 5.6
2017-Apr-28 06:30N 47°31' W 122°24'4 8.1
2017-Apr-28 06:01N 47°31' W 122°30'2 4.2
2017-Apr-28 05:30N 47°31' W 122°27'0 0.3
2017-Apr-28 05:00N 47°31' W 122°26'0 0.3
2017-Apr-28 04:31N 47°31' W 122°26'2 3.0
2017-Apr-28 04:01N 47°31' W 122°24'3 6.9
2017-Apr-28 03:30N 47°31' W 122°29'1 2.0
2017-Apr-28 03:00N 47°31' W 122°28'3 5.4
2017-Apr-28 02:30N 47°31' W 122°24'3 5.5
2017-Apr-28 02:00N 47°31' W 122°28'1 2.7
2017-Apr-28 01:30N 47°31' W 122°30'1 2.6
2017-Apr-28 01:01N 47°31' W 122°28'3 5.6
2017-Apr-28 00:30N 47°31' W 122°24'3 5.3
2017-Apr-28 00:01N 47°31' W 122°28'2 4.5
2017-Apr-27 23:30N 47°31' W 122°24'4 7.4
2017-Apr-27 23:00N 47°31' W 122°30'4 8.0
2017-Apr-27 22:30N 47°31' W 122°24'3 5.3
2017-Apr-27 22:01N 47°31' W 122°28'0 1.0
2017-Apr-27 21:31N 47°31' W 122°27'1 1.2
2017-Apr-27 21:01N 47°31' W 122°26'1 1.5
2017-Apr-27 20:30N 47°31' W 122°25'1 1.9
2017-Apr-27 20:01N 47°31' W 122°24'4 7.0
2017-Apr-27 19:30N 47°31' W 122°29'1 1.8
2017-Apr-27 19:01N 47°31' W 122°28'3 5.5
2017-Apr-27 18:30N 47°31' W 122°24'3 5.5
2017-Apr-27 18:00N 47°31' W 122°28'2 4.8
2017-Apr-27 17:30N 47°31' W 122°24'3 6.9
2017-Apr-27 17:01N 47°31' W 122°29'1 2.1
2017-Apr-27 16:30N 47°31' W 122°28'3 5.6
2017-Apr-27 16:01N 47°31' W 122°24'3 5.5
2017-Apr-27 15:30N 47°31' W 122°28'1 1.9
2017-Apr-27 15:00N 47°31' W 122°27'0 0.4
2017-Apr-27 14:00N 47°31' W 122°27'1 1.9
2017-Apr-27 13:30N 47°31' W 122°25'3 6.3
2017-Apr-27 13:01N 47°31' W 122°30'1 2.6
2017-Apr-27 12:30N 47°31' W 122°28'3 5.6
2017-Apr-27 12:00N 47°31' W 122°24'3 5.6
2017-Apr-27 11:31N 47°31' W 122°28'1 2.5
2017-Apr-27 11:01N 47°31' W 122°30'0 0.1
2017-Apr-27 10:30N 47°31' W 122°30'0 0.1
2017-Apr-27 10:00N 47°31' W 122°30'1 2.6
2017-Apr-27 09:30N 47°31' W 122°28'3 5.6
2017-Apr-27 09:00N 47°31' W 122°24'4 7.6
2017-Apr-27 08:31N 47°31' W 122°29'3 5.6
2017-Apr-27 08:00N 47°31' W 122°25'3 5.1
2017-Apr-27 07:31N 47°31' W 122°29'1 1.7
2017-Apr-27 07:00N 47°31' W 122°28'3 5.4
2017-Apr-27 06:30N 47°31' W 122°24'4 7.4
2017-Apr-27 06:01N 47°31' W 122°29'2 4.2
2017-Apr-27 05:30N 47°31' W 122°26'0 0.8
2017-Apr-27 05:00N 47°31' W 122°27'0 0.4
2017-Apr-27 04:30N 47°31' W 122°27'2 4.0
2017-Apr-27 04:00N 47°31' W 122°24'4 7.1
2017-Apr-27 03:30N 47°31' W 122°29'1 1.4
2017-Apr-27 03:00N 47°31' W 122°28'3 5.9
2017-Apr-27 02:30N 47°31' W 122°24'3 5.6
2017-Apr-27 02:00N 47°31' W 122°28'1 2.7
2017-Apr-27 01:30N 47°31' W 122°30'2 4.6
2017-Apr-27 01:01N 47°31' W 122°26'2 3.4
2017-Apr-27 00:31N 47°31' W 122°24'3 5.1
2017-Apr-27 00:01N 47°31' W 122°28'3 5.2
2017-Apr-26 23:31N 47°31' W 122°24'4 8.1
2017-Apr-26 23:00N 47°31' W 122°30'4 8.0
2017-Apr-26 22:30N 47°31' W 122°24'2 4.6
2017-Apr-26 22:01N 47°31' W 122°27'0 0.9
2017-Apr-26 21:30N 47°31' W 122°28'2 4.1
2017-Apr-26 21:00N 47°31' W 122°25'0 0.2
2017-Apr-26 20:31N 47°31' W 122°25'1 1.6
2017-Apr-26 20:00N 47°31' W 122°24'4 7.0
2017-Apr-26 19:31N 47°31' W 122°29'1 1.8
2017-Apr-26 19:01N 47°31' W 122°28'3 5.4
2017-Apr-26 18:30N 47°31' W 122°24'3 5.7
2017-Apr-26 18:01N 47°31' W 122°28'2 4.7
2017-Apr-26 17:31N 47°31' W 122°24'3 6.7
2017-Apr-26 17:01N 47°31' W 122°29'1 2.1
2017-Apr-26 16:30N 47°31' W 122°28'3 5.6
2017-Apr-26 16:00N 47°31' W 122°24'3 5.3
2017-Apr-26 15:31N 47°31' W 122°28'1 1.5
2017-Apr-26 15:00N 47°31' W 122°27'1 2.7
2017-Apr-26 14:30N 47°31' W 122°25'0 0.2
2017-Apr-26 13:30N 47°31' W 122°25'3 6.4
2017-Apr-26 13:00N 47°31' W 122°30'1 2.6
2017-Apr-26 12:30N 47°31' W 122°28'3 5.6
2017-Apr-26 12:00N 47°31' W 122°24'3 5.9
2017-Apr-26 11:30N 47°31' W 122°28'1 2.3
2017-Apr-26 11:00N 47°31' W 122°30'0 0.1
2017-Apr-26 10:30N 47°31' W 122°30'0 0.1
2017-Apr-26 10:01N 47°31' W 122°30'1 2.6
2017-Apr-26 09:30N 47°31' W 122°28'1 2.2
2017-Apr-26 09:00N 47°31' W 122°26'1 2.2
2017-Apr-26 08:30N 47°31' W 122°28'1 1.7
2017-Apr-26 08:00N 47°31' W 122°27'1 1.7
2017-Apr-26 07:30N 47°31' W 122°28'2 3.5
2017-Apr-26 07:01N 47°31' W 122°25'1 2.1
2017-Apr-26 06:30N 47°31' W 122°24'4 8.0
2017-Apr-26 06:01N 47°31' W 122°30'3 6.2
2017-Apr-26 05:30N 47°31' W 122°25'1 2.2
2017-Apr-26 05:00N 47°31' W 122°27'0 0.7
2017-Apr-26 04:30N 47°31' W 122°27'2 3.9
2017-Apr-26 04:00N 47°31' W 122°24'3 6.5
2017-Apr-26 03:31N 47°31' W 122°29'1 1.1
2017-Apr-26 03:01N 47°31' W 122°28'3 5.9
2017-Apr-26 02:30N 47°31' W 122°24'3 5.7
2017-Apr-26 02:00N 47°31' W 122°28'1 2.7
2017-Apr-26 01:31N 47°31' W 122°30'1 2.9
2017-Apr-26 01:01N 47°31' W 122°28'3 5.1
2017-Apr-26 00:30N 47°31' W 122°24'2 4.9
2017-Apr-26 00:01N 47°31' W 122°27'2 4.8
2017-Apr-25 23:31N 47°31' W 122°24'4 7.8
2017-Apr-25 23:00N 47°31' W 122°30'4 7.9
2017-Apr-25 22:30N 47°31' W 122°24'2 5.1
2017-Apr-25 22:00N 47°31' W 122°27'1 3.0
2017-Apr-25 21:31N 47°32' W 122°25'2 3.4
2017-Apr-25 21:00N 47°31' W 122°28'3 5.0
2017-Apr-25 20:30N 47°31' W 122°24'0 0.1
2017-Apr-25 20:01N 47°31' W 122°24'4 7.7
2017-Apr-25 19:31N 47°31' W 122°30'1 2.5
2017-Apr-25 19:01N 47°31' W 122°28'3 5.5
2017-Apr-25 18:30N 47°31' W 122°24'3 5.5
2017-Apr-25 18:00N 47°31' W 122°28'2 3.4
2017-Apr-25 17:31N 47°31' W 122°25'3 5.9
2017-Apr-25 17:01N 47°31' W 122°30'1 2.5
2017-Apr-25 16:30N 47°31' W 122°28'3 5.6
2017-Apr-25 16:00N 47°31' W 122°24'3 5.5
2017-Apr-25 15:31N 47°31' W 122°28'1 1.5
2017-Apr-25 15:00N 47°31' W 122°27'1 2.8
2017-Apr-25 14:30N 47°31' W 122°25'0 0.1
2017-Apr-25 13:31N 47°31' W 122°25'3 6.3
2017-Apr-25 13:00N 47°31' W 122°30'1 2.6
2017-Apr-25 12:30N 47°31' W 122°28'3 5.6
2017-Apr-25 12:00N 47°31' W 122°24'3 5.6
2017-Apr-25 11:31N 47°31' W 122°28'1 2.6
2017-Apr-25 11:00N 47°31' W 122°30'0 0.2
2017-Apr-25 10:30N 47°31' W 122°30'0 0.2
2017-Apr-25 10:00N 47°31' W 122°30'1 2.6
2017-Apr-25 09:30N 47°31' W 122°28'3 5.6
2017-Apr-25 09:00N 47°31' W 122°24'4 8.0
2017-Apr-25 08:30N 47°31' W 122°30'3 6.8
2017-Apr-25 08:00N 47°31' W 122°25'3 5.0
2017-Apr-25 07:30N 47°31' W 122°28'1 1.3
2017-Apr-25 07:00N 47°31' W 122°28'3 5.6
2017-Apr-25 06:30N 47°31' W 122°24'4 8.1
2017-Apr-25 06:00N 47°31' W 122°30'2 4.8
2017-Apr-25 05:30N 47°31' W 122°26'0 0.7
2017-Apr-25 05:00N 47°31' W 122°27'0 0.1
2017-Apr-25 04:30N 47°31' W 122°27'2 4.1
2017-Apr-25 04:01N 47°31' W 122°24'3 6.8
2017-Apr-25 03:30N 47°31' W 122°29'1 1.1
2017-Apr-25 03:00N 47°31' W 122°28'3 5.7
2017-Apr-25 02:30N 47°31' W 122°24'3 5.6
2017-Apr-25 02:00N 47°31' W 122°28'1 2.6
2017-Apr-25 01:30N 47°31' W 122°30'3 5.3
2017-Apr-25 01:01N 47°31' W 122°26'1 1.3
2017-Apr-25 00:31N 47°31' W 122°25'1 2.0
2017-Apr-25 00:01N 47°32' W 122°26'1 2.9
2017-Apr-24 23:30N 47°31' W 122°24'4 8.1
2017-Apr-24 23:00N 47°31' W 122°30'4 7.9
2017-Apr-24 22:30N 47°31' W 122°24'3 5.3
2017-Apr-24 22:01N 47°31' W 122°28'1 1.5
2017-Apr-24 21:30N 47°31' W 122°27'0 1.0
2017-Apr-24 21:01N 47°31' W 122°27'2 3.9
2017-Apr-24 20:30N 47°31' W 122°24'0 0.4
2017-Apr-24 20:00N 47°31' W 122°24'3 6.9
2017-Apr-24 19:30N 47°31' W 122°29'1 2.3
2017-Apr-24 19:00N 47°31' W 122°28'3 5.3
2017-Apr-24 18:29N 47°31' W 122°24'3 5.8
2017-Apr-24 18:00N 47°31' W 122°28'2 4.6
2017-Apr-24 17:31N 47°31' W 122°25'3 6.8
2017-Apr-24 17:01N 47°31' W 122°30'1 2.4
2017-Apr-24 16:30N 47°31' W 122°28'3 5.6
2017-Apr-24 16:00N 47°31' W 122°24'3 5.7
2017-Apr-24 15:31N 47°31' W 122°28'1 1.7
2017-Apr-24 15:01N 47°31' W 122°27'1 1.8
2017-Apr-24 14:30N 47°31' W 122°26'0 0.4
2017-Apr-24 13:30N 47°31' W 122°25'3 5.9
2017-Apr-24 13:00N 47°31' W 122°30'1 2.6
2017-Apr-24 12:31N 47°31' W 122°28'3 5.5
2017-Apr-24 12:00N 47°31' W 122°24'3 5.6
2017-Apr-24 11:31N 47°31' W 122°28'1 2.6
2017-Apr-24 11:00N 47°31' W 122°30'0 0.0
2017-Apr-24 10:30N 47°31' W 122°30'0 0.0
2017-Apr-24 10:00N 47°31' W 122°30'1 2.6
2017-Apr-24 09:30N 47°31' W 122°28'3 5.6
2017-Apr-24 09:01N 47°31' W 122°24'4 7.8
2017-Apr-24 08:30N 47°31' W 122°30'3 7.0
2017-Apr-24 08:01N 47°31' W 122°24'3 5.4
2017-Apr-24 07:30N 47°31' W 122°28'1 1.3
2017-Apr-24 07:01N 47°31' W 122°28'3 5.6
2017-Apr-24 06:30N 47°31' W 122°24'4 8.1
2017-Apr-24 06:00N 47°31' W 122°30'2 3.6
2017-Apr-24 05:31N 47°31' W 122°27'0 0.6
2017-Apr-24 05:00N 47°31' W 122°27'0 1.0
2017-Apr-24 04:30N 47°31' W 122°26'1 2.6
2017-Apr-24 04:00N 47°31' W 122°24'4 7.4
2017-Apr-24 03:30N 47°31' W 122°30'1 2.5
2017-Apr-24 03:00N 47°31' W 122°28'3 5.6
2017-Apr-24 02:30N 47°31' W 122°24'3 5.7
2017-Apr-24 02:00N 47°31' W 122°28'3 5.6
2017-Apr-24 01:30N 47°31' W 122°24'3 5.6
2017-Apr-24 01:00N 47°31' W 122°28'3 5.4
2017-Apr-24 00:30N 47°31' W 122°24'3 5.9
2017-Apr-24 00:01N 47°31' W 122°28'0 0.6
2017-Apr-23 23:30N 47°31' W 122°28'3 5.6
2017-Apr-23 23:01N 47°31' W 122°24'3 5.5
2017-Apr-23 22:30N 47°31' W 122°28'1 2.7
2017-Apr-23 22:00N 47°31' W 122°30'3 5.4
2017-Apr-23 21:31N 47°31' W 122°26'0 0.8
2017-Apr-23 21:00N 47°31' W 122°26'2 3.1
2017-Apr-23 20:30N 47°31' W 122°24'3 5.3
2017-Apr-23 20:01N 47°31' W 122°28'1 2.5
2017-Apr-23 19:30N 47°31' W 122°30'4 7.8
2017-Apr-23 19:00N 47°31' W 122°24'1 3.0
2017-Apr-23 18:30N 47°31' W 122°26'3 5.1
2017-Apr-23 18:00N 47°31' W 122°30'1 2.6
2017-Apr-23 17:31N 47°31' W 122°28'3 5.4
2017-Apr-23 17:00N 47°31' W 122°24'3 5.4
2017-Apr-23 16:31N 47°31' W 122°28'0 0.6
2017-Apr-23 16:00N 47°31' W 122°28'3 5.2
2017-Apr-23 15:28N 47°31' W 122°24'3 6.0
2017-Apr-23 15:00N 47°31' W 122°28'1 1.0
2017-Apr-23 14:00N 47°31' W 122°27'1 2.1
2017-Apr-23 13:30N 47°31' W 122°25'3 6.3
2017-Apr-23 13:00N 47°31' W 122°30'1 2.6
2017-Apr-23 12:30N 47°31' W 122°28'3 5.2
2017-Apr-23 11:58N 47°31' W 122°24'3 6.2
2017-Apr-23 11:30N 47°31' W 122°28'1 2.5
2017-Apr-23 11:00N 47°31' W 122°30'0 0.0
2017-Apr-23 10:30N 47°31' W 122°30'0 0.0
2017-Apr-23 10:00N 47°31' W 122°30'1 2.6
2017-Apr-23 09:30N 47°31' W 122°28'2 3.2
2017-Apr-23 09:01N 47°31' W 122°26'2 3.2
2017-Apr-23 08:30N 47°31' W 122°28'2 4.5
2017-Apr-23 07:58N 47°31' W 122°24'4 7.9
2017-Apr-23 07:30N 47°31' W 122°30'1 2.9
2017-Apr-23 07:00N 47°31' W 122°28'1 2.8
2017-Apr-23 06:31N 47°31' W 122°26'2 3.3
2017-Apr-23 06:00N 47°31' W 122°28'2 4.7
2017-Apr-23 05:30N 47°31' W 122°25'1 2.8
2017-Apr-23 05:00N 47°31' W 122°27'0 0.2
2017-Apr-23 04:30N 47°31' W 122°27'1 2.9
2017-Apr-23 04:00N 47°31' W 122°24'4 7.3
2017-Apr-23 03:29N 47°31' W 122°30'1 2.5
2017-Apr-23 02:57N 47°31' W 122°28'3 5.9
2017-Apr-23 02:29N 47°31' W 122°24'3 5.9
2017-Apr-23 02:00N 47°31' W 122°28'1 2.6
2017-Apr-23 01:29N 47°31' W 122°26'0 0.6
2017-Apr-23 01:00N 47°31' W 122°26'0 0.9
2017-Apr-23 00:30N 47°31' W 122°26'2 4.6
2017-Apr-23 00:00N 47°31' W 122°30'1 2.6
2017-Apr-22 23:30N 47°31' W 122°28'3 5.6
2017-Apr-22 23:00N 47°31' W 122°24'3 5.5
2017-Apr-22 22:30N 47°31' W 122°28'1 2.5
2017-Apr-22 22:00N 47°31' W 122°30'3 5.2
2017-Apr-22 21:31N 47°31' W 122°26'1 1.2
2017-Apr-22 21:00N 47°31' W 122°25'1 1.8
2017-Apr-22 20:31N 47°31' W 122°26'1 2.7
2017-Apr-22 20:00N 47°31' W 122°24'4 7.3
2017-Apr-22 19:30N 47°31' W 122°30'1 2.5
2017-Apr-22 19:01N 47°31' W 122°28'3 5.4
2017-Apr-22 18:30N 47°31' W 122°24'4 7.8
2017-Apr-22 18:00N 47°31' W 122°30'1 2.5
2017-Apr-22 17:31N 47°31' W 122°28'3 5.5
2017-Apr-22 17:00N 47°31' W 122°24'3 6.7
2017-Apr-22 16:30N 47°31' W 122°29'1 1.2
2017-Apr-22 16:00N 47°31' W 122°28'3 5.6
2017-Apr-22 15:30N 47°31' W 122°24'3 5.5
2017-Apr-22 15:00N 47°31' W 122°28'1 2.4
2017-Apr-22 14:31N 47°31' W 122°30'3 3.0
2017-Apr-22 13:30N 47°31' W 122°25'3 6.5
2017-Apr-22 13:00N 47°31' W 122°30'1 2.6
2017-Apr-22 12:30N 47°31' W 122°28'3 5.6
2017-Apr-22 12:00N 47°31' W 122°24'3 6.1
2017-Apr-22 11:31N 47°31' W 122°28'1 2.1
2017-Apr-22 11:01N 47°31' W 122°30'0 0.0
2017-Apr-22 10:31N 47°31' W 122°30'0 0.0
2017-Apr-22 10:00N 47°31' W 122°30'1 2.7
2017-Apr-22 09:31N 47°31' W 122°28'1 2.9
2017-Apr-22 09:00N 47°31' W 122°26'2 3.1
2017-Apr-22 08:30N 47°31' W 122°28'3 5.2
2017-Apr-22 08:00N 47°31' W 122°24'3 5.1
2017-Apr-22 07:31N 47°31' W 122°28'3 5.4
2017-Apr-22 07:00N 47°31' W 122°24'4 8.1
2017-Apr-22 06:30N 47°31' W 122°30'1 2.6
2017-Apr-22 06:00N 47°31' W 122°28'3 5.6
2017-Apr-22 05:30N 47°31' W 122°24'4 7.7
2017-Apr-22 05:01N 47°31' W 122°29'1 2.1
2017-Apr-22 04:30N 47°31' W 122°28'3 5.6
2017-Apr-22 04:00N 47°31' W 122°24'3 5.3
2017-Apr-22 03:31N 47°31' W 122°28'2 3.5
2017-Apr-22 03:01N 47°31' W 122°25'3 6.4
2017-Apr-22 02:31N 47°31' W 122°30'1 2.6
2017-Apr-22 02:00N 47°31' W 122°28'3 5.6
2017-Apr-22 01:30N 47°31' W 122°24'4 8.1
2017-Apr-22 01:00N 47°31' W 122°30'1 2.6
2017-Apr-22 00:31N 47°31' W 122°28'3 5.5
2017-Apr-22 00:00N 47°31' W 122°24'3 5.6
2017-Apr-21 23:30N 47°31' W 122°28'3 5.5
2017-Apr-21 23:00N 47°31' W 122°24'1 2.5
2017-Apr-21 22:30N 47°31' W 122°26'2 3.0
2017-Apr-21 22:00N 47°31' W 122°28'0 0.0
2017-Apr-21 21:30N 47°31' W 122°28'0 0.0
2017-Apr-21 21:00N 47°31' W 122°28'0 0.0
2017-Apr-21 20:30N 47°31' W 122°28'2 3.7
2017-Apr-21 20:00N 47°31' W 122°25'1 2.9
2017-Apr-21 19:30N 47°31' W 122°27'1 2.7
2017-Apr-21 19:00N 47°31' W 122°25'2 3.6
2017-Apr-21 18:30N 47°31' W 122°28'1 2.7
2017-Apr-21 18:00N 47°31' W 122°30'2 4.9
2017-Apr-21 17:30N 47°31' W 122°26'2 3.2
2017-Apr-21 17:00N 47°31' W 122°24'3 6.0
2017-Apr-21 16:30N 47°31' W 122°28'0 0.4
2017-Apr-21 16:00N 47°31' W 122°28'3 5.8
2017-Apr-21 15:30N 47°31' W 122°24'4 7.3
2017-Apr-21 15:00N 47°31' W 122°29'1 1.9
2017-Apr-21 14:30N 47°31' W 122°28'0 0.0
2017-Apr-21 13:30N 47°31' W 122°28'3 5.6
2017-Apr-21 13:00N 47°31' W 122°24'3 5.5
2017-Apr-21 12:31N 47°31' W 122°28'0 0.0
2017-Apr-21 12:01N 47°31' W 122°28'0 0.0
2017-Apr-21 11:31N 47°31' W 122°28'0 0.0
2017-Apr-21 11:00N 47°31' W 122°28'0 0.0
2017-Apr-21 10:31N 47°31' W 122°28'0 0.0
2017-Apr-21 10:00N 47°31' W 122°28'0 0.0
2017-Apr-21 09:31N 47°31' W 122°28'0 0.0
2017-Apr-21 09:00N 47°31' W 122°28'0 0.0
2017-Apr-21 08:30N 47°31' W 122°28'0 0.0
2017-Apr-21 08:00N 47°31' W 122°28'0 0.0
2017-Apr-21 07:31N 47°31' W 122°28'0 0.0
2017-Apr-21 07:01N 47°31' W 122°28'0 0.0
2017-Apr-21 06:30N 47°31' W 122°28'0 0.0
2017-Apr-21 06:01N 47°31' W 122°28'0 0.0
2017-Apr-21 05:31N 47°31' W 122°28'0 0.0
2017-Apr-21 05:00N 47°31' W 122°28'1 2.6
2017-Apr-21 04:31N 47°31' W 122°30'4 7.7
2017-Apr-21 04:01N 47°31' W 122°24'3 5.2
2017-Apr-21 03:30N 47°31' W 122°28'3 5.5
2017-Apr-21 03:00N 47°31' W 122°24'3 5.9
2017-Apr-21 02:31N 47°31' W 122°28'0 0.8
2017-Apr-21 02:00N 47°31' W 122°28'3 5.6
2017-Apr-21 01:30N 47°31' W 122°24'4 8.2
2017-Apr-21 01:00N 47°31' W 122°30'1 2.6
2017-Apr-21 00:30N 47°31' W 122°28'3 5.5
2017-Apr-21 00:00N 47°31' W 122°24'3 5.6
2017-Apr-20 23:30N 47°31' W 122°28'3 5.3
2017-Apr-20 22:59N 47°31' W 122°24'2 4.3
2017-Apr-20 22:30N 47°31' W 122°27'0 0.7
2017-Apr-20 22:00N 47°31' W 122°27'2 4.2
2017-Apr-20 21:30N 47°31' W 122°24'3 5.0
2017-Apr-20 21:00N 47°31' W 122°28'0 0.0
2017-Apr-20 20:30N 47°31' W 122°28'2 3.6
2017-Apr-20 20:01N 47°31' W 122°25'1 1.7
2017-Apr-20 19:30N 47°31' W 122°26'2 3.1
2017-Apr-20 19:00N 47°31' W 122°24'3 5.0
2017-Apr-20 18:30N 47°31' W 122°28'1 2.7
2017-Apr-20 18:00N 47°31' W 122°30'2 3.7
2017-Apr-20 17:31N 47°31' W 122°27'2 4.4
2017-Apr-20 17:00N 47°31' W 122°24'  

Dump ship's entire track history